createdAt,value
2017-05-22T00:00:55.729Z,8.97
2017-05-22T00:01:56.343Z,8.88
2017-05-22T00:02:56.954Z,9.04
2017-05-22T00:03:57.570Z,8.92
2017-05-22T00:04:58.187Z,9.02
2017-05-22T00:05:58.851Z,8.88
2017-05-22T00:06:59.460Z,8.91
2017-05-22T00:08:00.080Z,8.97
2017-05-22T00:09:00.689Z,8.89
2017-05-22T00:10:01.299Z,8.88
2017-05-22T00:11:01.909Z,8.84
2017-05-22T00:12:02.527Z,8.92
2017-05-22T00:13:03.142Z,8.87
2017-05-22T00:14:03.749Z,8.79
2017-05-22T00:15:04.359Z,8.84
2017-05-22T00:16:04.976Z,8.85
2017-05-22T00:17:05.590Z,8.76
2017-05-22T00:18:06.200Z,8.81
2017-05-22T00:19:06.813Z,8.79
2017-05-22T00:20:07.428Z,8.82
2017-05-22T00:21:08.085Z,8.78
2017-05-22T00:22:08.697Z,8.84
2017-05-22T00:23:09.315Z,8.85
2017-05-22T00:24:09.926Z,8.81
2017-05-22T00:25:10.535Z,8.85
2017-05-22T00:26:11.157Z,8.81
2017-05-22T00:27:11.763Z,8.81
2017-05-22T00:28:12.376Z,8.82
2017-05-22T00:29:13.028Z,8.69
2017-05-22T00:30:13.642Z,8.78
2017-05-22T00:31:14.251Z,8.73
2017-05-22T00:32:14.863Z,8.70
2017-05-22T00:33:15.473Z,8.70
2017-05-22T00:34:16.085Z,8.69
2017-05-22T00:35:16.696Z,8.63
2017-05-22T00:36:17.306Z,8.70
2017-05-22T00:37:17.951Z,8.61
2017-05-22T00:38:18.567Z,8.71
2017-05-22T00:39:19.179Z,8.66
2017-05-22T00:40:19.822Z,8.61
2017-05-22T00:41:20.434Z,8.60
2017-05-22T00:42:21.051Z,8.61
2017-05-22T00:43:21.666Z,8.70
2017-05-22T00:44:22.273Z,8.69
2017-05-22T00:45:22.891Z,8.61
2017-05-22T00:46:23.550Z,8.53
2017-05-22T00:47:24.160Z,8.51
2017-05-22T00:48:24.776Z,8.63
2017-05-22T00:49:25.390Z,8.70
2017-05-22T00:50:26.000Z,8.69
2017-05-22T00:51:26.669Z,8.70
2017-05-22T00:52:27.278Z,8.60
2017-05-22T00:53:27.889Z,8.56
2017-05-22T00:54:28.501Z,8.61
2017-05-22T00:55:29.111Z,8.63
2017-05-22T00:56:29.728Z,8.56
2017-05-22T00:57:30.336Z,8.55
2017-05-22T00:58:30.949Z,8.51
2017-05-22T00:59:31.561Z,8.48
2017-05-22T01:00:32.173Z,8.49
2017-05-22T01:01:32.786Z,8.48
2017-05-22T01:02:33.428Z,8.51
2017-05-22T01:03:34.040Z,8.48
2017-05-22T01:04:34.651Z,8.46
2017-05-22T01:05:35.261Z,8.51
2017-05-22T01:06:35.878Z,8.46
2017-05-22T01:07:36.492Z,8.52
2017-05-22T01:08:37.136Z,8.38
2017-05-22T01:09:37.753Z,8.37
2017-05-22T01:10:38.361Z,8.36
2017-05-22T01:11:38.972Z,8.38
2017-05-22T01:12:39.584Z,8.38
2017-05-22T01:13:40.203Z,8.41
2017-05-22T01:14:40.813Z,8.41
2017-05-22T01:15:41.422Z,8.38
2017-05-22T01:16:42.082Z,8.37
2017-05-22T01:17:42.698Z,8.42
2017-05-22T01:18:43.306Z,8.36
2017-05-22T01:19:43.919Z,8.41
2017-05-22T01:20:44.529Z,8.42
2017-05-22T01:21:45.190Z,8.28
2017-05-22T01:22:45.803Z,8.36
2017-05-22T01:23:46.413Z,8.36
2017-05-22T01:24:47.029Z,8.30
2017-05-22T01:25:47.638Z,8.30
2017-05-22T01:26:48.298Z,8.27
2017-05-22T01:27:48.909Z,8.36
2017-05-22T01:28:49.525Z,8.36
2017-05-22T01:29:50.135Z,8.36
2017-05-22T01:30:50.747Z,8.36
2017-05-22T01:31:51.392Z,8.30
2017-05-22T01:32:52.004Z,8.26
2017-05-22T01:33:52.615Z,8.31
2017-05-22T01:34:53.232Z,8.27
2017-05-22T01:35:53.851Z,8.23
2017-05-22T01:36:54.455Z,8.27
2017-05-22T01:37:55.066Z,8.31
2017-05-22T01:38:55.676Z,8.31
2017-05-22T01:39:56.287Z,8.27
2017-05-22T01:40:56.900Z,8.26
2017-05-22T01:41:57.510Z,8.26
2017-05-22T01:42:58.123Z,8.26
2017-05-22T01:43:58.734Z,8.26
2017-05-22T01:44:59.348Z,8.34
2017-05-22T01:45:59.978Z,8.31
2017-05-22T01:47:00.566Z,8.36
2017-05-22T01:48:01.178Z,8.33
2017-05-22T01:49:01.796Z,8.27
2017-05-22T01:50:02.410Z,8.31
2017-05-22T01:51:03.056Z,8.23
2017-05-22T01:52:03.712Z,8.24
2017-05-22T01:53:04.330Z,8.23
2017-05-22T01:54:04.940Z,8.20
2017-05-22T01:55:05.557Z,8.20
2017-05-22T01:56:06.166Z,8.27
2017-05-22T01:57:06.827Z,8.23
2017-05-22T01:58:07.439Z,8.16
2017-05-22T01:59:08.049Z,8.24
2017-05-22T02:00:08.660Z,8.19
2017-05-22T02:01:09.272Z,8.10
2017-05-22T02:02:09.885Z,8.15
2017-05-22T02:03:10.498Z,8.20
2017-05-22T02:04:11.114Z,8.13
2017-05-22T02:05:11.758Z,8.08
2017-05-22T02:06:12.368Z,8.08
2017-05-22T02:07:12.980Z,8.06
2017-05-22T02:08:13.595Z,8.08
2017-05-22T02:09:14.208Z,8.10
2017-05-22T02:10:14.821Z,8.05
2017-05-22T02:11:15.434Z,8.08
2017-05-22T02:12:16.049Z,8.05
2017-05-22T02:13:16.659Z,8.05
2017-05-22T02:14:17.272Z,7.93
2017-05-22T02:15:17.916Z,7.98
2017-05-22T02:16:18.533Z,7.97
2017-05-22T02:17:19.141Z,7.98
2017-05-22T02:18:19.753Z,8.05
2017-05-22T02:19:20.364Z,8.01
2017-05-22T02:20:20.976Z,8.10
2017-05-22T02:21:21.623Z,8.01
2017-05-22T02:22:22.281Z,7.95
2017-05-22T02:23:22.897Z,7.94
2017-05-22T02:24:23.506Z,7.97
2017-05-22T02:25:24.118Z,8.00
2017-05-22T02:26:24.730Z,8.13
2017-05-22T02:27:25.346Z,7.95
2017-05-22T02:28:25.955Z,8.00
2017-05-22T02:29:26.565Z,8.00
2017-05-22T02:30:27.182Z,8.05
2017-05-22T02:31:27.791Z,8.01
2017-05-22T02:32:28.451Z,7.95
2017-05-22T02:33:29.064Z,8.05
2017-05-22T02:34:29.677Z,8.05
2017-05-22T02:35:30.292Z,7.97
2017-05-22T02:36:30.900Z,7.94
2017-05-22T02:37:31.511Z,7.93
2017-05-22T02:38:32.128Z,7.87
2017-05-22T02:39:32.735Z,8.01
2017-05-22T02:40:33.346Z,7.98
2017-05-22T02:41:33.956Z,7.97
2017-05-22T02:42:34.573Z,8.03
2017-05-22T02:43:35.188Z,8.03
2017-05-22T02:44:35.796Z,7.88
2017-05-22T02:45:36.468Z,8.00
2017-05-22T02:46:37.021Z,7.93
2017-05-22T02:47:37.629Z,7.98
2017-05-22T02:48:38.240Z,7.88
2017-05-22T02:49:38.851Z,7.88
2017-05-22T02:50:39.461Z,7.88
2017-05-22T02:51:40.071Z,7.83
2017-05-22T02:52:40.731Z,7.72
2017-05-22T02:53:41.344Z,7.80
2017-05-22T02:54:41.955Z,7.79
2017-05-22T02:55:42.565Z,7.79
2017-05-22T02:56:43.176Z,7.76
2017-05-22T02:57:43.791Z,7.76
2017-05-22T02:58:44.399Z,7.72
2017-05-22T02:59:45.015Z,7.85
2017-05-22T03:00:45.622Z,7.76
2017-05-22T03:01:46.233Z,7.76
2017-05-22T03:02:46.847Z,7.83
2017-05-22T03:03:47.491Z,7.83
2017-05-22T03:04:48.113Z,7.75
2017-05-22T03:05:48.753Z,7.72
2017-05-22T03:06:49.369Z,7.87
2017-05-22T03:07:49.988Z,7.80
2017-05-22T03:08:50.591Z,7.79
2017-05-22T03:09:51.207Z,7.73
2017-05-22T03:10:51.815Z,7.77
2017-05-22T03:11:52.425Z,7.77
2017-05-22T03:12:53.116Z,7.75
2017-05-22T03:13:53.727Z,7.76
2017-05-22T03:14:54.337Z,7.76
2017-05-22T03:15:54.983Z,7.70
2017-05-22T03:16:55.589Z,7.72
2017-05-22T03:17:56.200Z,7.72
2017-05-22T03:18:56.819Z,7.75
2017-05-22T03:19:57.423Z,7.66
2017-05-22T03:20:58.035Z,7.66
2017-05-22T03:21:58.647Z,7.61
2017-05-22T03:22:59.310Z,7.60
2017-05-22T03:23:59.920Z,7.58
2017-05-22T03:25:00.532Z,7.61
2017-05-22T03:26:01.141Z,7.61
2017-05-22T03:27:01.751Z,7.61
2017-05-22T03:28:02.412Z,7.61
2017-05-22T03:29:03.024Z,7.69
2017-05-22T03:30:03.636Z,7.63
2017-05-22T03:31:04.249Z,7.70
2017-05-22T03:32:04.857Z,7.63
2017-05-22T03:33:05.523Z,7.60
2017-05-22T03:34:06.130Z,7.61
2017-05-22T03:35:06.740Z,7.67
2017-05-22T03:36:07.352Z,7.67
2017-05-22T03:37:07.961Z,7.66
2017-05-22T03:38:08.622Z,7.66
2017-05-22T03:39:09.234Z,7.61
2017-05-22T03:40:09.843Z,7.60
2017-05-22T03:41:10.460Z,7.61
2017-05-22T03:42:11.067Z,7.61
2017-05-22T03:43:11.702Z,7.56
2017-05-22T03:44:12.288Z,7.57
2017-05-22T03:45:12.929Z,7.58
2017-05-22T03:46:13.546Z,7.58
2017-05-22T03:47:14.153Z,7.61
2017-05-22T03:48:14.763Z,7.57
2017-05-22T03:49:15.379Z,7.56
2017-05-22T03:50:15.993Z,7.63
2017-05-22T03:51:16.608Z,7.67
2017-05-22T03:52:17.215Z,7.67
2017-05-22T03:53:17.830Z,7.67
2017-05-22T03:54:18.439Z,7.70
2017-05-22T03:55:19.080Z,7.63
2017-05-22T03:56:19.690Z,7.69
2017-05-22T03:57:20.301Z,7.73
2017-05-22T03:58:20.969Z,7.70
2017-05-22T03:59:21.577Z,7.75
2017-05-22T04:00:22.194Z,7.72
2017-05-22T04:01:22.806Z,7.75
2017-05-22T04:02:23.416Z,7.72
2017-05-22T04:03:24.028Z,7.67
2017-05-22T04:04:24.640Z,7.70
2017-05-22T04:05:25.252Z,7.58
2017-05-22T04:06:25.863Z,7.70
2017-05-22T04:07:26.475Z,7.75
2017-05-22T04:08:27.085Z,7.67
2017-05-22T04:09:27.730Z,7.72
2017-05-22T04:10:28.340Z,7.72
2017-05-22T04:11:28.953Z,7.77
2017-05-22T04:12:29.565Z,7.73
2017-05-22T04:13:30.227Z,7.76
2017-05-22T04:14:30.839Z,7.76
2017-05-22T04:15:31.452Z,7.79
2017-05-22T04:16:32.064Z,7.82
2017-05-22T04:17:32.675Z,7.80
2017-05-22T04:18:33.287Z,7.90
2017-05-22T04:19:33.936Z,7.85
2017-05-22T04:20:34.552Z,7.90
2017-05-22T04:21:35.161Z,7.80
2017-05-22T04:22:35.773Z,7.79
2017-05-22T04:23:36.419Z,7.93
2017-05-22T04:24:37.033Z,7.83
2017-05-22T04:25:37.679Z,7.73
2017-05-22T04:26:38.290Z,7.82
2017-05-22T04:27:38.907Z,7.75
2017-05-22T04:28:39.563Z,7.82
2017-05-22T04:29:40.179Z,7.85
2017-05-22T04:30:40.790Z,7.75
2017-05-22T04:31:41.406Z,7.79
2017-05-22T04:32:42.023Z,7.75
2017-05-22T04:33:42.636Z,7.77
2017-05-22T04:34:43.247Z,7.79
2017-05-22T04:35:43.858Z,7.80
2017-05-22T04:36:44.469Z,7.76
2017-05-22T04:37:45.081Z,7.85
2017-05-22T04:38:45.750Z,7.88
2017-05-22T04:39:46.360Z,7.83
2017-05-22T04:40:46.971Z,7.87
2017-05-22T04:41:47.581Z,7.83
2017-05-22T04:42:48.225Z,7.90
2017-05-22T04:43:48.886Z,7.85
2017-05-22T04:44:49.499Z,7.94
2017-05-22T04:45:50.115Z,7.95
2017-05-22T04:46:50.724Z,7.93
2017-05-22T04:47:51.336Z,7.94
2017-05-22T04:48:51.950Z,7.90
2017-05-22T04:49:52.560Z,7.90
2017-05-22T04:50:53.171Z,7.90
2017-05-22T04:51:53.783Z,7.85
2017-05-22T04:52:54.403Z,7.87
2017-05-22T04:53:55.059Z,7.97
2017-05-22T04:54:55.672Z,7.95
2017-05-22T04:55:56.286Z,7.97
2017-05-22T04:56:56.902Z,7.97
2017-05-22T04:57:57.508Z,7.95
2017-05-22T04:58:58.170Z,7.97
2017-05-22T04:59:58.781Z,8.10
2017-05-22T05:00:59.431Z,8.03
2017-05-22T05:02:00.042Z,8.01
2017-05-22T05:03:00.650Z,8.03
2017-05-22T05:04:01.269Z,8.00
2017-05-22T05:05:01.879Z,8.12
2017-05-22T05:06:02.490Z,8.06
2017-05-22T05:07:03.136Z,8.09
2017-05-22T05:08:03.748Z,8.13
2017-05-22T05:09:04.359Z,8.10
2017-05-22T05:10:04.977Z,8.12
2017-05-22T05:11:05.585Z,8.18
2017-05-22T05:12:06.201Z,8.15
2017-05-22T05:13:06.808Z,8.15
2017-05-22T05:14:07.508Z,8.19
2017-05-22T05:15:08.124Z,8.23
2017-05-22T05:16:08.734Z,8.23
2017-05-22T05:17:09.346Z,8.23
2017-05-22T05:18:09.957Z,8.23
2017-05-22T05:19:10.620Z,8.24
2017-05-22T05:20:11.232Z,8.24
2017-05-22T05:21:11.848Z,8.27
2017-05-22T05:22:12.465Z,8.18
2017-05-22T05:23:13.074Z,8.26
2017-05-22T05:24:13.741Z,8.24
2017-05-22T05:25:14.352Z,8.28
2017-05-22T05:26:14.968Z,8.24
2017-05-22T05:27:15.582Z,8.33
2017-05-22T05:28:16.193Z,8.28
2017-05-22T05:29:16.862Z,8.27
2017-05-22T05:30:17.469Z,8.33
2017-05-22T05:31:18.082Z,8.34
2017-05-22T05:32:18.731Z,8.31
2017-05-22T05:33:19.381Z,8.36
2017-05-22T05:34:19.989Z,8.30
2017-05-22T05:35:20.601Z,8.26
2017-05-22T05:36:21.219Z,8.28
2017-05-22T05:37:21.835Z,8.37
2017-05-22T05:38:22.448Z,8.34
2017-05-22T05:39:23.066Z,8.44
2017-05-22T05:40:23.674Z,8.42
2017-05-22T05:41:24.286Z,8.34
2017-05-22T05:42:24.897Z,8.41
2017-05-22T05:43:25.507Z,8.52
2017-05-22T05:44:26.119Z,8.63
2017-05-22T05:45:26.755Z,8.52
2017-05-22T05:46:27.354Z,8.61
2017-05-22T05:47:27.969Z,8.56
2017-05-22T05:48:28.578Z,8.60
2017-05-22T05:49:29.192Z,8.70
2017-05-22T05:50:29.801Z,8.69
2017-05-22T05:51:30.419Z,8.69
2017-05-22T05:52:31.030Z,8.84
2017-05-22T05:53:31.642Z,8.87
2017-05-22T05:54:32.253Z,8.97
2017-05-22T05:55:32.865Z,9.00
2017-05-22T05:56:33.477Z,8.92
2017-05-22T05:57:34.089Z,8.88
2017-05-22T05:58:34.703Z,8.99
2017-05-22T05:59:35.365Z,9.08
2017-05-22T06:00:35.978Z,9.16
2017-05-22T06:01:36.592Z,9.19
2017-05-22T06:02:37.210Z,9.19
2017-05-22T06:03:37.827Z,9.22
2017-05-22T06:04:38.442Z,9.23
2017-05-22T06:05:39.088Z,9.28
2017-05-22T06:06:39.701Z,9.26
2017-05-22T06:07:40.316Z,9.23
2017-05-22T06:08:40.961Z,9.26
2017-05-22T06:09:41.595Z,9.26
2017-05-22T06:10:42.244Z,9.31
2017-05-22T06:11:42.855Z,9.36
2017-05-22T06:12:43.469Z,9.29
2017-05-22T06:13:44.081Z,9.37
2017-05-22T06:14:44.745Z,9.36
2017-05-22T06:15:45.359Z,9.39
2017-05-22T06:16:45.973Z,9.41
2017-05-22T06:17:46.587Z,9.46
2017-05-22T06:18:47.200Z,9.40
2017-05-22T06:19:47.862Z,9.44
2017-05-22T06:20:48.483Z,9.50
2017-05-22T06:21:49.095Z,9.51
2017-05-22T06:22:49.708Z,9.44
2017-05-22T06:23:50.322Z,9.48
2017-05-22T06:24:50.934Z,9.54
2017-05-22T06:25:51.547Z,9.48
2017-05-22T06:26:52.165Z,9.55
2017-05-22T06:27:52.777Z,9.55
2017-05-22T06:28:53.392Z,9.54
2017-05-22T06:29:54.003Z,9.61
2017-05-22T06:30:54.618Z,9.51
2017-05-22T06:31:55.231Z,9.58
2017-05-22T06:32:55.843Z,9.56
2017-05-22T06:33:56.457Z,9.61
2017-05-22T06:34:57.122Z,9.59
2017-05-22T06:35:57.739Z,9.61
2017-05-22T06:36:58.353Z,9.58
2017-05-22T06:37:58.967Z,9.59
2017-05-22T06:38:59.581Z,9.66
2017-05-22T06:40:00.196Z,9.72
2017-05-22T06:41:00.813Z,9.76
2017-05-22T06:42:01.429Z,9.73
2017-05-22T06:43:02.043Z,9.77
2017-05-22T06:44:02.659Z,9.68
2017-05-22T06:45:03.322Z,9.73
2017-05-22T06:46:03.938Z,9.77
2017-05-22T06:47:04.585Z,9.74
2017-05-22T06:48:05.203Z,9.80
2017-05-22T06:49:05.852Z,9.74
2017-05-22T06:50:06.523Z,9.69
2017-05-22T06:51:07.135Z,9.79
2017-05-22T06:52:07.754Z,9.74
2017-05-22T06:53:08.367Z,9.82
2017-05-22T06:54:08.983Z,9.80
2017-05-22T06:55:09.648Z,9.87
2017-05-22T06:56:10.263Z,9.83
2017-05-22T06:57:10.876Z,9.86
2017-05-22T06:58:11.493Z,9.91
2017-05-22T06:59:12.120Z,9.95
2017-05-22T07:00:12.776Z,10.01
2017-05-22T07:01:13.397Z,9.98
2017-05-22T07:02:14.010Z,9.95
2017-05-22T07:03:14.628Z,10.02
2017-05-22T07:04:15.242Z,10.12
2017-05-22T07:05:15.908Z,10.20
2017-05-22T07:06:16.524Z,10.20
2017-05-22T07:07:17.141Z,10.33
2017-05-22T07:08:17.757Z,10.34
2017-05-22T07:09:18.372Z,10.26
2017-05-22T07:10:18.994Z,10.37
2017-05-22T07:11:19.606Z,10.42
2017-05-22T07:12:20.224Z,10.51
2017-05-22T07:13:20.840Z,10.54
2017-05-22T07:14:21.462Z,10.56
2017-05-22T07:15:22.075Z,10.61
2017-05-22T07:16:22.696Z,10.59
2017-05-22T07:17:23.311Z,10.64
2017-05-22T07:18:23.926Z,10.61
2017-05-22T07:19:24.542Z,10.67
2017-05-22T07:20:25.159Z,10.64
2017-05-22T07:21:25.807Z,10.68
2017-05-22T07:22:26.423Z,10.61
2017-05-22T07:23:27.044Z,10.60
2017-05-22T07:24:27.658Z,10.63
2017-05-22T07:25:28.274Z,10.67
2017-05-22T07:26:28.889Z,10.72
2017-05-22T07:27:29.505Z,10.81
2017-05-22T07:28:30.123Z,10.79
2017-05-22T07:29:30.737Z,10.90
2017-05-22T07:30:31.404Z,10.97
2017-05-22T07:31:32.021Z,11.04
2017-05-22T07:32:32.637Z,11.05
2017-05-22T07:33:33.253Z,11.08
2017-05-22T07:34:33.875Z,11.04
2017-05-22T07:35:34.537Z,11.11
2017-05-22T07:36:35.152Z,11.17
2017-05-22T07:37:35.805Z,11.22
2017-05-22T07:38:36.418Z,11.25
2017-05-22T07:39:37.033Z,11.25
2017-05-22T07:40:37.649Z,11.30
2017-05-22T07:41:38.273Z,11.33
2017-05-22T07:42:38.891Z,11.29
2017-05-22T07:43:39.504Z,11.40
2017-05-22T07:44:40.125Z,11.35
2017-05-22T07:45:40.744Z,11.45
2017-05-22T07:46:41.365Z,11.52
2017-05-22T07:47:42.013Z,11.50
2017-05-22T07:48:42.634Z,11.55
2017-05-22T07:49:43.247Z,11.72
2017-05-22T07:50:43.864Z,11.66
2017-05-22T07:51:44.482Z,11.65
2017-05-22T07:52:45.102Z,11.72
2017-05-22T07:53:45.715Z,11.72
2017-05-22T07:54:46.331Z,11.81
2017-05-22T07:55:46.998Z,11.90
2017-05-22T07:56:47.612Z,12.00
2017-05-22T07:57:48.236Z,12.02
2017-05-22T07:58:48.849Z,12.06
2017-05-22T07:59:49.465Z,12.09
2017-05-22T08:00:50.086Z,12.00
2017-05-22T08:01:50.701Z,11.97
2017-05-22T08:02:51.322Z,11.91
2017-05-22T08:03:51.933Z,12.00
2017-05-22T08:04:52.548Z,11.97
2017-05-22T08:05:53.167Z,12.03
2017-05-22T08:06:53.785Z,11.99
2017-05-22T08:07:54.400Z,12.06
2017-05-22T08:08:55.019Z,12.17
2017-05-22T08:09:55.635Z,12.04
2017-05-22T08:10:56.250Z,12.24
2017-05-22T08:11:56.868Z,12.29
2017-05-22T08:12:57.491Z,12.28
2017-05-22T08:13:58.113Z,12.24
2017-05-22T08:14:58.725Z,12.45
2017-05-22T08:15:59.341Z,12.47
2017-05-22T08:16:59.965Z,12.54
2017-05-22T08:18:00.577Z,12.76
2017-05-22T08:19:01.195Z,12.72
2017-05-22T08:20:01.843Z,12.82
2017-05-22T08:21:02.459Z,12.83
2017-05-22T08:22:03.112Z,12.90
2017-05-22T08:23:03.732Z,12.85
2017-05-22T08:24:04.347Z,12.97
2017-05-22T08:25:04.966Z,12.82
2017-05-22T08:26:05.639Z,12.80
2017-05-22T08:27:06.288Z,12.78
2017-05-22T08:28:06.902Z,12.82
2017-05-22T08:29:07.521Z,13.01
2017-05-22T08:30:08.138Z,13.05
2017-05-22T08:31:08.806Z,13.18
2017-05-22T08:32:09.422Z,13.09
2017-05-22T08:33:10.038Z,13.13
2017-05-22T08:34:10.663Z,13.16
2017-05-22T08:35:11.277Z,13.18
2017-05-22T08:36:11.927Z,13.13
2017-05-22T08:37:12.547Z,13.11
2017-05-22T08:38:13.161Z,13.13
2017-05-22T08:39:13.778Z,13.18
2017-05-22T08:40:14.395Z,13.30
2017-05-22T08:41:15.013Z,13.28
2017-05-22T08:42:15.632Z,13.25
2017-05-22T08:43:16.283Z,13.28
2017-05-22T08:44:16.940Z,13.27
2017-05-22T08:45:17.559Z,13.25
2017-05-22T08:46:18.223Z,13.39
2017-05-22T08:47:18.842Z,13.41
2017-05-22T08:48:19.461Z,13.46
2017-05-22T08:49:20.080Z,13.35
2017-05-22T08:50:20.695Z,13.46
2017-05-22T08:51:21.362Z,13.50
2017-05-22T08:52:21.986Z,13.53
2017-05-22T08:53:22.607Z,13.62
2017-05-22T08:54:23.223Z,13.59
2017-05-22T08:55:23.841Z,13.71
2017-05-22T08:56:24.459Z,13.65
2017-05-22T08:57:25.083Z,13.70
2017-05-22T08:58:25.697Z,13.71
2017-05-22T08:59:26.316Z,13.77
2017-05-22T09:00:26.933Z,13.86
2017-05-22T09:01:27.599Z,13.87
2017-05-22T09:02:28.225Z,13.92
2017-05-22T09:03:28.840Z,13.96
2017-05-22T09:04:29.463Z,13.99
2017-05-22T09:05:30.083Z,14.07
2017-05-22T09:06:30.700Z,14.12
2017-05-22T09:07:31.317Z,14.08
2017-05-22T09:08:31.936Z,14.10
2017-05-22T09:09:32.558Z,14.10
2017-05-22T09:10:33.172Z,14.12
2017-05-22T09:11:33.797Z,14.15
2017-05-22T09:12:34.411Z,14.18
2017-05-22T09:13:35.031Z,14.15
2017-05-22T09:14:35.654Z,14.28
2017-05-22T09:15:36.268Z,14.33
2017-05-22T09:16:36.888Z,14.43
2017-05-22T09:17:37.506Z,14.60
2017-05-22T09:18:38.124Z,14.62
2017-05-22T09:19:38.742Z,14.70
2017-05-22T09:20:39.393Z,14.81
2017-05-22T09:21:40.066Z,14.89
2017-05-22T09:22:40.682Z,15.03
2017-05-22T09:23:41.301Z,15.06
2017-05-22T09:24:41.920Z,15.04
2017-05-22T09:25:42.537Z,15.03
2017-05-22T09:26:43.205Z,15.00
2017-05-22T09:27:43.830Z,15.03
2017-05-22T09:28:44.445Z,15.03
2017-05-22T09:29:45.065Z,15.10
2017-05-22T09:30:45.683Z,15.00
2017-05-22T09:31:46.299Z,15.03
2017-05-22T09:32:46.926Z,15.00
2017-05-22T09:33:47.546Z,15.07
2017-05-22T09:34:48.163Z,15.06
2017-05-22T09:35:48.781Z,15.00
2017-05-22T09:36:49.399Z,14.86
2017-05-22T09:37:50.024Z,14.96
2017-05-22T09:38:50.639Z,15.04
2017-05-22T09:39:51.265Z,15.03
2017-05-22T09:40:51.915Z,15.03
2017-05-22T09:41:52.582Z,15.14
2017-05-22T09:42:53.203Z,15.11
2017-05-22T09:43:53.825Z,15.11
2017-05-22T09:44:54.443Z,15.04
2017-05-22T09:45:55.062Z,15.02
2017-05-22T09:46:55.731Z,14.81
2017-05-22T09:47:56.351Z,14.69
2017-05-22T09:48:56.968Z,14.66
2017-05-22T09:49:57.588Z,14.78
2017-05-22T09:50:58.205Z,14.79
2017-05-22T09:51:58.874Z,14.85
2017-05-22T09:52:59.494Z,14.94
2017-05-22T09:54:00.115Z,15.14
2017-05-22T09:55:00.731Z,15.24
2017-05-22T09:56:01.351Z,15.39
2017-05-22T09:57:02.020Z,15.51
2017-05-22T09:58:02.638Z,15.57
2017-05-22T09:59:03.258Z,15.49
2017-05-22T10:00:03.875Z,15.55
2017-05-22T10:01:04.500Z,15.52
2017-05-22T10:02:05.123Z,15.62
2017-05-22T10:03:05.739Z,15.72
2017-05-22T10:04:06.359Z,15.73
2017-05-22T10:05:06.978Z,15.57
2017-05-22T10:06:07.597Z,15.55
2017-05-22T10:07:08.265Z,15.52
2017-05-22T10:08:08.883Z,15.65
2017-05-22T10:09:09.505Z,15.68
2017-05-22T10:10:10.122Z,15.79
2017-05-22T10:11:10.746Z,15.72
2017-05-22T10:12:11.363Z,15.75
2017-05-22T10:13:11.982Z,15.68
2017-05-22T10:14:12.601Z,15.79
2017-05-22T10:15:13.219Z,15.77
2017-05-22T10:16:13.866Z,15.94
2017-05-22T10:17:14.461Z,16.05
2017-05-22T10:18:15.087Z,16.02
2017-05-22T10:19:15.704Z,16.08
2017-05-22T10:20:16.323Z,16.01
2017-05-22T10:21:16.942Z,16.24
2017-05-22T10:22:17.610Z,16.35
2017-05-22T10:23:18.232Z,16.31
2017-05-22T10:24:18.854Z,16.32
2017-05-22T10:25:19.471Z,16.35
2017-05-22T10:26:20.089Z,16.31
2017-05-22T10:27:20.711Z,16.36
2017-05-22T10:28:21.332Z,16.43
2017-05-22T10:29:21.950Z,16.39
2017-05-22T10:30:22.575Z,16.51
2017-05-22T10:31:23.216Z,16.64
2017-05-22T10:32:23.810Z,16.60
2017-05-22T10:33:24.437Z,16.60
2017-05-22T10:34:25.054Z,16.71
2017-05-22T10:35:25.675Z,16.75
2017-05-22T10:36:26.294Z,16.61
2017-05-22T10:37:26.919Z,16.64
2017-05-22T10:38:27.537Z,16.57
2017-05-22T10:39:28.159Z,16.50
2017-05-22T10:40:28.781Z,16.29
2017-05-22T10:41:29.399Z,16.05
2017-05-22T10:42:30.068Z,16.08
2017-05-22T10:43:30.690Z,16.21
2017-05-22T10:44:31.311Z,16.39
2017-05-22T10:45:31.936Z,16.53
2017-05-22T10:46:32.554Z,16.58
2017-05-22T10:47:33.227Z,16.41
2017-05-22T10:48:33.846Z,16.49
2017-05-22T10:49:34.466Z,16.42
2017-05-22T10:50:35.119Z,16.43
2017-05-22T10:51:35.737Z,16.56
2017-05-22T10:52:36.358Z,16.65
2017-05-22T10:53:36.978Z,16.72
2017-05-22T10:54:37.606Z,16.79
2017-05-22T10:55:38.223Z,16.91
2017-05-22T10:56:38.849Z,16.87
2017-05-22T10:57:39.521Z,16.69
2017-05-22T10:58:40.139Z,16.64
2017-05-22T10:59:40.764Z,16.43
2017-05-22T11:00:41.383Z,16.49
2017-05-22T11:01:42.065Z,16.49
2017-05-22T11:02:42.710Z,16.86
2017-05-22T11:03:43.328Z,16.94
2017-05-22T11:04:43.948Z,17.02
2017-05-22T11:05:44.569Z,17.04
2017-05-22T11:06:45.187Z,17.16
2017-05-22T11:07:45.813Z,17.20
2017-05-22T11:08:46.432Z,17.24
2017-05-22T11:09:47.052Z,17.04
2017-05-22T11:10:47.672Z,17.04
2017-05-22T11:11:48.297Z,16.99
2017-05-22T11:12:48.921Z,16.94
2017-05-22T11:13:49.545Z,17.04
2017-05-22T11:14:50.162Z,17.05
2017-05-22T11:15:50.782Z,17.11
2017-05-22T11:16:51.402Z,17.22
2017-05-22T11:17:52.022Z,17.33
2017-05-22T11:18:52.643Z,17.51
2017-05-22T11:19:53.271Z,17.71
2017-05-22T11:20:53.890Z,17.70
2017-05-22T11:21:54.511Z,17.70
2017-05-22T11:22:55.134Z,17.72
2017-05-22T11:23:55.752Z,17.87
2017-05-22T11:24:56.373Z,17.78
2017-05-22T11:25:56.993Z,17.71
2017-05-22T11:26:57.641Z,17.60
2017-05-22T11:27:58.238Z,17.67
2017-05-22T11:28:58.892Z,17.85
2017-05-22T11:29:59.511Z,17.83
2017-05-22T11:31:00.166Z,17.80
2017-05-22T11:32:00.755Z,17.70
2017-05-22T11:33:01.431Z,17.54
2017-05-22T11:34:02.056Z,17.57
2017-05-22T11:35:02.676Z,17.48
2017-05-22T11:36:03.295Z,17.56
2017-05-22T11:37:03.917Z,17.38
2017-05-22T11:38:04.542Z,17.30
2017-05-22T11:39:05.160Z,17.26
2017-05-22T11:40:05.814Z,17.11
2017-05-22T11:41:06.444Z,17.11
2017-05-22T11:42:07.059Z,17.16
2017-05-22T11:43:07.702Z,17.33
2017-05-22T11:44:08.302Z,17.51
2017-05-22T11:45:08.923Z,17.63
2017-05-22T11:46:09.545Z,17.67
2017-05-22T11:47:10.167Z,17.60
2017-05-22T11:48:10.787Z,17.48
2017-05-22T11:49:11.409Z,17.39
2017-05-22T11:50:12.034Z,17.33
2017-05-22T11:51:12.660Z,17.48
2017-05-22T11:52:13.278Z,17.52
2017-05-22T11:53:13.950Z,17.72
2017-05-22T11:54:14.570Z,17.85
2017-05-22T11:55:15.196Z,17.89
2017-05-22T11:56:15.821Z,18.07
2017-05-22T11:57:16.440Z,18.05
2017-05-22T11:58:17.061Z,18.13
2017-05-22T11:59:17.681Z,18.15
2017-05-22T12:00:18.303Z,18.00
2017-05-22T12:01:18.926Z,17.92
2017-05-22T12:02:19.547Z,18.03
2017-05-22T12:03:20.221Z,18.00
2017-05-22T12:04:20.841Z,18.10
2017-05-22T12:05:21.464Z,18.20
2017-05-22T12:06:22.086Z,18.18
2017-05-22T12:07:22.718Z,18.23
2017-05-22T12:08:23.338Z,18.29
2017-05-22T12:09:24.000Z,18.47
2017-05-22T12:10:24.621Z,18.49
2017-05-22T12:11:25.242Z,18.62
2017-05-22T12:12:25.871Z,18.73
2017-05-22T12:13:26.546Z,18.83
2017-05-22T12:14:27.166Z,18.62
2017-05-22T12:15:27.791Z,18.59
2017-05-22T12:16:28.412Z,18.66
2017-05-22T12:17:29.034Z,18.74
2017-05-22T12:18:29.658Z,18.73
2017-05-22T12:19:30.288Z,18.60
2017-05-22T12:20:30.907Z,18.74
2017-05-22T12:21:31.533Z,18.77
2017-05-22T12:22:32.154Z,18.77
2017-05-22T12:23:32.806Z,18.89
2017-05-22T12:24:33.436Z,18.90
2017-05-22T12:25:34.056Z,19.04
2017-05-22T12:26:34.685Z,19.16
2017-05-22T12:27:35.305Z,19.21
2017-05-22T12:28:35.928Z,19.31
2017-05-22T12:29:36.558Z,19.41
2017-05-22T12:30:37.179Z,19.41
2017-05-22T12:31:37.803Z,19.34
2017-05-22T12:32:38.427Z,19.44
2017-05-22T12:33:39.134Z,19.34
2017-05-22T12:34:39.756Z,19.47
2017-05-22T12:35:40.381Z,19.47
2017-05-22T12:36:41.005Z,19.55
2017-05-22T12:37:41.666Z,19.64
2017-05-22T12:38:42.329Z,19.56
2017-05-22T12:39:42.957Z,19.39
2017-05-22T12:40:43.581Z,19.21
2017-05-22T12:41:44.201Z,19.15
2017-05-22T12:42:44.830Z,19.04
2017-05-22T12:43:45.452Z,19.00
2017-05-22T12:44:46.082Z,19.14
2017-05-22T12:45:46.704Z,19.29
2017-05-22T12:46:47.326Z,19.31
2017-05-22T12:47:47.951Z,19.29
2017-05-22T12:48:48.583Z,19.34
2017-05-22T12:49:49.204Z,19.29
2017-05-22T12:50:49.828Z,19.34
2017-05-22T12:51:50.457Z,19.34
2017-05-22T12:52:51.121Z,19.39
2017-05-22T12:53:51.744Z,19.18
2017-05-22T12:54:52.366Z,18.93
2017-05-22T12:55:53.021Z,18.83
2017-05-22T12:56:53.645Z,18.84
2017-05-22T12:57:54.269Z,18.89
2017-05-22T12:58:54.893Z,18.89
2017-05-22T12:59:55.517Z,18.88
2017-05-22T13:00:56.141Z,18.90
2017-05-22T13:01:56.764Z,18.93
2017-05-22T13:02:57.393Z,18.92
2017-05-22T13:03:58.071Z,18.89
2017-05-22T13:04:58.690Z,18.98
2017-05-22T13:05:59.313Z,19.02
2017-05-22T13:06:59.956Z,18.99
2017-05-22T13:08:00.560Z,19.22
2017-05-22T13:09:01.217Z,19.19
2017-05-22T13:10:01.847Z,19.31
2017-05-22T13:11:02.474Z,19.54
2017-05-22T13:12:03.099Z,19.55
2017-05-22T13:13:03.734Z,19.51
2017-05-22T13:14:04.431Z,19.44
2017-05-22T13:15:05.055Z,19.47